• Join FlightAware (Why Join?)
  • Login
  • US Flag 
07:40PM EDT


 

Airport Tracker/Info


-or-


 

Live Flight TrackerFlight Track Log ✈ ASH3794 ✈ 04-Sep-2013 ✈ KORD - KPWM

Flight Track Log - Related Links

Times and Time Zones

All times are in EDT time to prevent confusion due to time zone crossing. See the ASH3794 flight status page for this flight to view local times or setup timezone preferences in your user account.

Time Position Orientation Groundspeed Altitude Reporting Facility
EDT Latitude Longitude Course Direction KTS MPH feet Rate Location/Type
03:08PM 42.0167 -87.9333 66° East 187 215 2,600  Level Chicago TRACON
03:09PM 42.0667 -87.8833 37° Northeast 225 259 5,000 1,140 Climbing Chicago TRACON
03:10PM 42.1342 -87.8331 29° Northeast 246 283 5,100 1,320 Climbing Chicago Center
03:11PM 42.1764 -87.7442 57° Northeast 272 313 7,900 2,700 Climbing Chicago Center
03:12PM 42.1928 -87.6328 79° East 296 341 10,700 2,460 Climbing Chicago Center
03:13PM 42.2191 -87.1928 66° East  Level FlightAware Approximate
03:13PM 42.2142 -87.4953 78° East 309 356 13,100  Level Chicago Center
03:14PM 42.2347 -87.3589 78° East 358 412 15,000 1,740 Climbing Chicago Center
03:15PM 42.2547 -87.2217 79° East 373 429 16,700 1,680 Climbing Chicago Center
03:16PM 42.2753 -87.0789 79° East 383 441 18,500 1,620 Climbing Chicago Center
03:17PM 42.2847 -86.9242 85° East 405 466 20,100 1,620 Climbing Chicago Center
03:18PM 42.2922 -86.7353 87° East 419 482 21,900 1,440 Climbing Chicago Center
03:19PM 42.2969 -86.5964 87° East 429 494 23,100 1,200 Climbing Chicago Center
03:20PM 42.2911 -86.4261 93° East 448 516 24,500 1,320 Climbing Chicago Center
03:21PM 42.2717 -86.2214 97° East 457 526 25,900 1,140 Climbing Chicago Center
03:22PM 42.2711 -86.0458 90° East 466 536 26,900 1,080 Climbing Chicago Center
03:23PM 42.2728 -85.8828 89° East 471 542 28,200 1,500 Climbing Chicago Center
03:24PM 42.2764 -85.6719 89° East 474 545 30,000 1,500 Climbing Chicago Center
03:25PM 42.2781 -85.4975 89° East 470 541 31,300 780 Climbing Chicago Center
03:26PM 42.2794 -85.3222 89° East 469 540 31,700 600 Climbing Chicago Center
03:27PM 42.2822 -85.1356 89° East 488 562 32,600 1,200 Climbing Chicago Center
03:28PM 42.2844 -84.9567 89° East 483 556 34,200 1,200 Climbing Chicago Center
03:30PM 42.2850 -84.7447 90° East 474 545 35,200 900 Climbing Chicago Center
03:31PM 42.2856 -84.5661 90° East 477 549 36,100 780 Climbing Chicago Center
03:32PM 42.2972 -84.3908 85° East 474 545 36,900 420 Climbing Chicago Center
03:33PM 42.3117 -84.2156 84° East 470 541 37,000  Climbing Chicago Center
03:34PM 42.3244 -84.0489 84° East 477 549 37,000  Level Cleveland Center
03:35PM 42.3406 -83.8617 83° East 488 562 37,000  Level Cleveland Center
03:36PM 42.3583 -83.6714 83° East 499 574 37,000  Level Cleveland Center
03:37PM 42.3719 -83.4611 85° East 505 581 37,000  Level Cleveland Center
03:38PM 42.3892 -83.2708 83° East 513 590 37,000  Level Cleveland Center
03:39PM 42.4039 -83.0744 84° East 523 602 37,000  Level Cleveland Center
03:40PM 42.4183 -82.8867 84° East 511 588 37,000  Level Cleveland Center
03:41PM 42.4325 -82.6958 84° East 511 588 37,000  Level Cleveland Center
03:42PM 42.4461 -82.5050 84° East 506 582 37,000  Level Cleveland Center
03:43PM 42.4597 -82.3169 84° East 506 582 37,000  Level Cleveland Center
03:44PM 42.4747 -82.1258 84° East 501 577 37,000  Level Cleveland Center
03:45PM 42.4856 -81.9403 85° East 496 571 37,000  Level Cleveland Center
03:46PM 42.5000 -81.7717 83° East 496 571 37,000  Level Cleveland Center
03:47PM 42.5122 -81.5633 85° East 501 577 37,000  Level Cleveland Center
03:48PM 42.5242 -81.3747 85° East 491 565 37,000  Level Cleveland Center
03:49PM 42.5378 -81.1919 84° East 496 571 37,000  Level Cleveland Center
03:50PM 42.5492 -80.9975 85° East 501 577 37,000  Level Cleveland Center
03:51PM 42.5581 -80.8086 86° East 501 577 37,000  Level Cleveland Center
03:52PM 42.5706 -80.6197 85° East 501 577 37,000  Level Cleveland Center
03:53PM 42.5811 -80.4308 86° East 496 571 37,000  Level Cleveland Center
03:54PM 42.5889 -80.2617 86° East 496 571 37,000  Level Cleveland Center
03:55PM 42.5986 -80.0700 86° East 502 578 37,000  Level Cleveland Center
03:56PM 42.6103 -79.8781 85° East 502 578 37,000  Level Cleveland Center
03:57PM 42.6172 -79.6861 87° East 502 578 37,000  Level Cleveland Center
03:58PM 42.6303 -79.4967 85° East 497 572 37,000  Level Cleveland Center
03:59PM 42.6367 -79.3075 87° East 497 572 37,000  Level Cleveland Center
04:00PM 42.6447 -79.1125 87° East 497 572 37,000  Level Cleveland Center
04:02PM 42.6600 -78.7311 87° East 497 572 37,000  Level Cleveland Center
04:03PM 42.6694 -78.5417 86° East 497 572 37,000  Level Cleveland Center
04:04PM 42.6742 -78.3522 88° East 497 572 37,000  Level Cleveland Center
04:05PM 42.6808 -78.1628 87° East 497 572 37,000  Level Cleveland Center
04:06PM 42.6872 -77.9733 87° East 497 572 37,000  Level Cleveland Center
04:07PM 42.6931 -77.7836 88° East 497 572 37,000  Level Cleveland Center
04:08PM 42.6989 -77.5969 88° East 497 572 37,000  Level Cleveland Center
04:09PM 42.7339 -77.2578 82° East 505 581 37,000  Level Boston Center
04:10PM 42.7611 -77.0589 79° East 499 574 37,000  Level Boston Center
04:11PM 42.7894 -76.8686 78° East 499 574 37,000  Level Boston Center
04:12PM 42.8175 -76.6808 78° East 504 580 37,000  Level Boston Center
04:13PM 42.8422 -76.5156 78° East 504 580 37,000  Level Boston Center
04:14PM 42.8675 -76.3328 79° East 499 574 37,000  Level Boston Center
04:15PM 42.8922 -76.1531 79° East 492 566 37,000  Level Boston Center
04:16PM 42.9144 -75.9728 80° East 487 560 37,000  Level Boston Center
04:17PM 42.9411 -75.7814 79° East 487 560 37,000  Level Boston Center
04:18PM 42.9653 -75.5925 80° East 498 573 37,000  Level Boston Center
04:19PM 42.9892 -75.4064 80° East 503 579 37,000  Level Boston Center
04:20PM 43.0147 -75.2144 80° East 503 579 37,000  Level Boston Center
04:21PM 43.0381 -75.0281 80° East 503 579 37,000  Level Boston Center
04:22PM 43.0606 -74.8556 80° East 503 579 37,000  Level Boston Center
04:23PM 43.0881 -74.6319 80° East 503 579 37,000  Level Boston Center
04:24PM 43.1100 -74.4450 81° East 503 579 37,000  Level Boston Center
04:25PM 43.1342 -74.2553 80° East 503 579 37,000  Level Boston Center
04:26PM 43.1558 -74.0625 81° East 503 579 37,000 -600 Level Boston Center
04:27PM 43.1792 -73.8722 80° East 503 579 35,900 -1,320 Descending Boston Center
04:28PM 43.2003 -73.6819 81° East 503 579 34,400 -1,500 Descending Boston Center
04:29PM 43.2231 -73.4886 81° East 503 579 32,900 -1,380 Descending Boston Center
04:30PM 43.2472 -73.3181 79° East 503 579 31,600 -1,440 Descending Boston Center
04:31PM 43.2653 -73.1272 83° East 503 579 30,100 -1,620 Descending Boston Center
04:32PM 43.2872 -72.9306 81° East 503 579 28,500 -1,860 Descending Boston Center
04:33PM 43.3086 -72.7397 81° East 503 579 26,500 -2,040 Descending Boston Center
04:34PM 43.3278 -72.5572 82° East 498 573 24,500 -2,040 Descending Boston Center
04:35PM 43.3467 -72.3772 82° East 482 555 22,500 -1,980 Descending Boston Center
04:36PM 43.3631 -72.2031 83° East 470 541 20,500 -2,100 Descending Boston Center
04:37PM 43.3811 -72.0172 82° East 454 522 18,300 -2,160 Descending Boston Center
04:38PM 43.3972 -71.8486 82° East 442 509 16,300 -1,680 Descending Boston Center
04:39PM 43.4128 -71.6828 83° East 442 509 15,100 -1,440 Descending Boston Center
04:40PM 43.4283 -71.5253 82° East 422 486 13,400 -1,440 Descending Boston Center
04:41PM 43.4436 -71.3706 82° East 416 479 12,200 -1,200 Descending Boston Center
04:42PM 43.4567 -71.2189 83° East 404 465 11,100 -600 Descending Boston Center
04:43PM 43.4842 -71.0753 75° East 392 451 11,000 -300 Descending Boston Center
04:44PM 43.5181 -70.9456 70° East 370 426 10,600 -900 Descending Boston Center
04:45PM 43.5650 -70.8614 52° Northeast 327 376 9,300 -1,680 Descending Boston Center
04:46PM 43.6239 -70.7622 51° Northeast 312 359 7,400 -1,860 Descending Boston Center
04:47PM 43.6703 -70.6633 57° Northeast 307 353 5,600 -1,200 Descending Boston Center
04:48PM 43.7022 -70.5675 65° Northeast 286 329 5,000 -360 Descending Boston Center
04:49PM 43.7214 -70.4664 75° East 270 311 4,900 -540 Descending Boston Center
04:50PM 43.7214 -70.3572 90° East 270 311 4,000 -600 Descending Boston Center
04:51PM 43.7178 -70.2656 93° East 260 299 3,800 -900 Descending Boston Center
04:52PM 43.7139 -70.1822 94° East 231 266 2,300 -1,020 Descending Boston Center
04:53PM 43.6917 -70.1114 113° Southeast 196 226 1,800 -300 Descending Boston Center
04:54PM 43.6439 -70.1133 182° South 168 193 1,800  Level Boston Center
04:55PM 43.6369 -70.1794 262° West 149 171 1,800 -360 Level Boston Center
04:56PM 43.6400 -70.2308 275° West 143 165 1,100 -780 Descending Boston Center
04:58PM 43.6333 -70.3000 270° West  Level FlightAware Approximate
05:05PM 43.6456 -70.3086 270° West  Level Estimated
05:06PM 43.6456 -70.3086 270° West  Level Estimated